Time;durP1;ratioP1;P1;durP2;ratioP2;P2;SDS_P1;SDS_P2;PMS_P1;PMS_P2;Temp;Humidity;BMP_temperature;BMP_pressure;BME280_temperature;BME280_humidity;BME280_pressure;Samples;Min_cycle;Max_cycle;Signal;HPM_P1;HPM_P2
2022/11/25 00:01:05;;;;;;;11.32;3.50;;;7.80;99.90;;;;;;5062680;28;20044;-86
2022/11/25 00:03:31;;;;;;;13.00;3.05;;;7.90;99.90;;;;;;5061666;28;20119;-86
2022/11/25 00:05:56;;;;;;;14.32;3.28;;;7.90;99.90;;;;;;5061713;28;20063;-86
2022/11/25 00:08:22;;;;;;;12.07;2.50;;;7.90;99.90;;;;;;5043108;28;20112;-86
2022/11/25 00:10:48;;;;;;;12.65;2.70;;;7.90;99.90;;;;;;5060955;28;20447;-86
2022/11/25 00:13:13;;;;;;;12.18;2.50;;;8.00;99.90;;;;;;5059980;28;20044;-85
2022/11/25 00:15:39;;;;;;;17.88;3.92;;;8.00;99.90;;;;;;5077028;28;20152;-86
2022/11/25 00:18:05;;;;;;;17.55;3.13;;;8.00;99.90;;;;;;5044887;28;20107;-86
2022/11/25 00:20:30;;;;;;;17.02;3.22;;;8.00;99.90;;;;;;5077213;28;20484;-86
2022/11/25 00:22:56;;;;;;;13.68;3.33;;;8.20;99.90;;;;;;5060902;28;20152;-86
2022/11/25 00:25:22;;;;;;;14.82;3.03;;;8.20;99.90;;;;;;5061818;28;20415;-86
2022/11/25 00:27:51;;;;;;;15.55;3.30;;;8.00;99.90;;;;;;5045727;28;20567;-86
2022/11/25 00:30:17;;;;;;;10.40;3.33;;;8.00;99.90;;;;;;5055500;28;20045;-86
2022/11/25 00:32:43;;;;;;;13.20;3.20;;;8.00;99.90;;;;;;5046053;28;20130;-86
2022/11/25 00:35:08;;;;;;;15.40;2.97;;;8.00;99.90;;;;;;5078928;28;20036;-85
2022/11/25 00:37:34;;;;;;;13.25;3.72;;;8.00;99.90;;;;;;5067148;28;20032;-86
2022/11/25 00:40:00;;;;;;;19.98;3.83;;;8.00;99.90;;;;;;5083859;28;20035;-85
2022/11/25 00:45:09;;;;;;;11.20;2.63;;;8.00;99.90;;;;;;5081968;28;20584;-86
2022/11/25 00:47:35;;;;;;;11.60;2.67;;;8.00;99.90;;;;;;5045314;28;20048;-86
2022/11/25 00:50:01;;;;;;;16.05;3.63;;;8.00;99.90;;;;;;5061475;28;20093;-86
2022/11/25 00:52:27;;;;;;;13.98;3.22;;;8.00;99.90;;;;;;5064364;28;20036;-87
2022/11/25 00:54:54;;;;;;;18.55;2.90;;;8.00;99.90;;;;;;5050601;28;20052;-85
2022/11/25 00:57:25;;;;;;;15.45;2.90;;;8.00;99.90;;;;;;5079226;28;20076;-85
2022/11/25 00:59:51;;;;;;;15.13;3.92;;;8.00;99.90;;;;;;5082638;28;20040;-86
2022/11/25 01:02:18;;;;;;;8.70;2.45;;;8.00;99.90;;;;;;5063034;28;20085;-85
2022/11/25 01:04:44;;;;;;;14.07;3.15;;;8.00;99.90;;;;;;5043207;28;20594;-86
2022/11/25 01:07:10;;;;;;;14.65;3.42;;;8.00;99.90;;;;;;5062552;28;20036;-87
2022/11/25 01:09:36;;;;;;;14.50;3.17;;;8.00;99.90;;;;;;5061290;28;20495;-86
2022/11/25 01:12:02;;;;;;;13.48;3.00;;;8.10;99.90;;;;;;5093864;28;20046;-87
2022/11/25 01:14:28;;;;;;;20.15;4.15;;;8.00;99.90;;;;;;5073028;28;20158;-87
2022/11/25 01:16:54;;;;;;;12.55;3.05;;;8.10;99.90;;;;;;5057545;28;20119;-87
2022/11/25 01:19:20;;;;;;;11.48;2.92;;;8.10;99.90;;;;;;5058641;28;20040;-87
2022/11/25 01:21:46;;;;;;;12.10;3.10;;;8.10;99.90;;;;;;5059002;28;20038;-87
2022/11/25 01:24:13;;;;;;;20.38;3.40;;;8.10;99.90;;;;;;5077126;28;20495;-84
2022/11/25 01:26:39;;;;;;;10.88;3.08;;;8.70;99.90;;;;;;5076000;28;20044;-86
2022/11/25 01:29:10;;;;;;;15.60;3.83;;;8.00;99.90;;;;;;5074348;28;20071;-85
2022/11/25 01:31:36;;;;;;;12.75;2.85;;;8.00;99.90;;;;;;5074395;28;20044;-86
2022/11/25 01:34:10;;;;;;;16.70;3.55;;;8.00;99.90;;;;;;5074665;28;20036;-86
2022/11/25 01:36:36;;;;;;;15.82;3.10;;;8.20;99.90;;;;;;5074247;28;20510;-86
2022/11/25 01:39:02;;;;;;;14.38;4.30;;;8.00;99.90;;;;;;5073654;28;20036;-87
2022/11/25 01:41:30;;;;;;;15.27;3.85;;;7.90;99.90;;;;;;5052298;28;20040;-87
2022/11/25 01:44:04;;;;;;;15.43;3.53;;;7.90;99.90;;;;;;5073789;28;20093;-87
2022/11/25 01:47:05;;;;;;;10.10;2.70;;;7.90;99.90;;;;;;5057976;28;20040;-86
2022/11/25 01:49:53;;;;;;;16.35;3.35;;;7.90;99.90;;;;;;5070161;28;20052;-86
2022/11/25 01:52:35;;;;;;;11.13;3.00;;;7.90;99.90;;;;;;5090259;28;20122;-86
2022/11/25 01:55:04;;;;;;;15.07;3.67;;;7.90;99.90;;;;;;5072760;28;20052;-86
2022/11/25 01:57:37;;;;;;;15.63;4.18;;;7.80;99.90;;;;;;5090651;28;20048;-85
2022/11/25 02:00:06;;;;;;;17.33;3.50;;;7.80;99.90;;;;;;5090539;28;20077;-86
2022/11/25 02:02:32;;;;;;;11.88;3.20;;;7.80;99.90;;;;;;5091680;28;20036;-87
2022/11/25 02:05:00;;;;;;;13.75;3.20;;;7.80;99.90;;;;;;5071669;28;20046;-86
2022/11/25 02:07:36;;;;;;;15.65;3.72;;;7.80;99.90;;;;;;5071973;28;20044;-87
2022/11/25 02:10:07;;;;;;;11.35;4.15;;;7.80;99.90;;;;;;5073003;28;20050;-87
2022/11/25 02:12:34;;;;;;;14.18;3.70;;;7.80;99.90;;;;;;5068587;28;20048;-86
2022/11/25 02:15:00;;;;;;;12.85;2.95;;;7.80;99.90;;;;;;5068962;28;20044;-87
2022/11/25 02:17:26;;;;;;;16.48;3.85;;;7.80;99.90;;;;;;5057425;28;20043;-87
2022/11/25 02:20:03;;;;;;;13.65;3.13;;;7.80;99.90;;;;;;5057417;28;20468;-87
2022/11/25 02:22:39;;;;;;;11.45;2.85;;;7.80;99.90;;;;;;5073758;28;20036;-87
2022/11/25 02:25:16;;;;;;;15.30;3.40;;;7.90;99.90;;;;;;5073920;28;20068;-88
2022/11/25 02:27:49;;;;;;;14.73;3.72;;;7.90;99.90;;;;;;5074082;28;20079;-87
2022/11/25 02:30:15;;;;;;;15.85;3.63;;;7.80;99.90;;;;;;5073183;28;20048;-87
2022/11/25 02:32:45;;;;;;;11.80;3.88;;;7.80;99.90;;;;;;5056821;28;20040;-88
2022/11/25 02:35:23;;;;;;;17.05;3.50;;;7.80;99.90;;;;;;5054612;28;20215;-87
2022/11/25 02:37:49;;;;;;;14.55;3.50;;;7.80;99.90;;;;;;5073453;28;20035;-87
2022/11/25 02:40:16;;;;;;;16.10;3.17;;;7.80;99.90;;;;;;5057665;28;20570;-87
2022/11/25 02:42:44;;;;;;;21.83;4.10;;;7.80;99.90;;;;;;5073564;28;20040;-87
2022/11/25 02:45:14;;;;;;;13.15;3.42;;;7.80;99.90;;;;;;5073091;28;20123;-88
2022/11/25 02:47:39;;;;;;;16.48;3.90;;;8.10;99.90;;;;;;5072533;28;20088;-90
2022/11/25 02:50:06;;;;;;;22.77;3.63;;;7.80;99.90;;;;;;5071346;28;20480;-90
2022/11/25 02:52:31;;;;;;;15.65;3.92;;;7.90;99.90;;;;;;5057032;28;20488;-91
2022/11/25 02:54:57;;;;;;;10.82;3.00;;;7.90;99.90;;;;;;5040527;28;20063;-90
2022/11/25 02:57:23;;;;;;;12.48;3.67;;;7.90;99.90;;;;;;5066093;28;20136;-88
2022/11/25 02:59:49;;;;;;;17.17;3.58;;;8.30;99.90;;;;;;5072552;28;20069;-88
2022/11/25 03:02:14;;;;;;;18.80;4.55;;;8.00;99.90;;;;;;5056597;28;20085;-87
2022/11/25 03:04:40;;;;;;;20.60;4.45;;;7.90;99.90;;;;;;5055676;28;20463;-88
2022/11/25 03:07:06;;;;;;;18.65;4.05;;;7.80;99.90;;;;;;5064535;28;20039;-87
2022/11/25 03:09:31;;;;;;;15.63;4.28;;;7.90;99.90;;;;;;5056748;28;20400;-88
2022/11/25 03:14:41;;;;;;;18.70;4.40;;;7.90;99.90;;;;;;5061579;28;20392;-87
2022/11/25 03:17:07;;;;;;;19.52;4.05;;;7.90;99.90;;;;;;5075759;28;20131;-88
2022/11/25 03:19:32;;;;;;;17.90;4.00;;;7.90;99.90;;;;;;5061257;28;20523;-87
2022/11/25 03:21:58;;;;;;;13.07;4.32;;;7.90;99.90;;;;;;5076874;28;20136;-88
2022/11/25 03:24:24;;;;;;;14.80;4.93;;;8.00;99.90;;;;;;5057618;28;20044;-87
2022/11/25 03:26:49;;;;;;;17.23;3.95;;;8.00;99.90;;;;;;5036347;28;20075;-86
2022/11/25 03:29:15;;;;;;;13.55;4.20;;;8.00;99.90;;;;;;5054981;28;20044;-87
2022/11/25 03:31:41;;;;;;;18.73;4.70;;;8.00;99.90;;;;;;5055380;28;20075;-87
2022/11/25 03:34:06;;;;;;;18.52;4.47;;;8.00;99.90;;;;;;5039336;28;20078;-87
2022/11/25 03:36:32;;;;;;;16.08;3.97;;;8.00;99.90;;;;;;5071055;28;20500;-87
2022/11/25 03:38:58;;;;;;;19.67;4.05;;;8.00;99.90;;;;;;5038938;28;20051;-86
2022/11/25 03:41:23;;;;;;;20.65;5.15;;;8.10;99.90;;;;;;5071250;28;20125;-86
2022/11/25 03:43:49;;;;;;;12.23;3.88;;;8.00;99.90;;;;;;5056275;28;20043;-86
2022/11/25 03:46:15;;;;;;;12.77;3.40;;;8.00;99.90;;;;;;5038715;28;20051;-87
2022/11/25 03:48:40;;;;;;;20.20;5.13;;;8.20;99.90;;;;;;5066375;28;20124;-86
2022/11/25 03:51:06;;;;;;;19.75;5.15;;;8.10;99.90;;;;;;5033269;28;20039;-86
2022/11/25 03:53:32;;;;;;;18.27;4.40;;;8.20;99.90;;;;;;5038342;28;20462;-86
2022/11/25 03:55:57;;;;;;;22.48;5.00;;;8.00;99.90;;;;;;5070989;28;20050;-85
2022/11/25 03:58:23;;;;;;;19.20;4.55;;;8.10;99.90;;;;;;5055796;28;20102;-86
2022/11/25 04:00:49;;;;;;;15.45;4.10;;;8.00;99.90;;;;;;5055074;28;20040;-85
2022/11/25 04:03:14;;;;;;;15.55;4.05;;;8.10;99.90;;;;;;5054910;28;20028;-86
2022/11/25 04:05:40;;;;;;;17.15;4.10;;;8.10;99.90;;;;;;5064620;28;20171;-85
2022/11/25 04:08:06;;;;;;;20.55;4.18;;;8.10;99.90;;;;;;5071122;28;20032;-85
2022/11/25 04:10:32;;;;;;;18.92;4.35;;;8.20;99.90;;;;;;5055151;28;20068;-85
2022/11/25 04:12:57;;;;;;;17.95;3.67;;;8.10;99.90;;;;;;5038802;28;20076;-85
2022/11/25 04:15:23;;;;;;;18.25;4.57;;;8.20;99.90;;;;;;5057397;28;20044;-85
2022/11/25 04:17:49;;;;;;;16.35;4.10;;;8.20;99.90;;;;;;5074433;28;20036;-85
2022/11/25 04:20:15;;;;;;;17.98;4.05;;;8.20;99.90;;;;;;5092326;28;20044;-85
2022/11/25 04:22:41;;;;;;;16.35;3.70;;;8.20;99.90;;;;;;5092065;28;20075;-85
2022/11/25 04:25:08;;;;;;;16.48;4.38;;;8.20;99.90;;;;;;5092528;28;20083;-85
2022/11/25 04:27:33;;;;;;;16.67;3.35;;;8.20;99.90;;;;;;5091730;28;20048;-84
2022/11/25 04:29:59;;;;;;;12.52;4.03;;;8.20;99.90;;;;;;5075466;28;20040;-85
2022/11/25 04:32:25;;;;;;;17.52;4.30;;;7.20;99.90;;;;;;5076408;28;20101;-84
2022/11/25 04:34:51;;;;;;;17.52;4.50;;;8.20;99.90;;;;;;5058627;28;20098;-85
2022/11/25 04:37:17;;;;;;;13.25;3.55;;;8.20;99.90;;;;;;5091735;28;20123;-84
2022/11/25 04:39:43;;;;;;;18.98;4.47;;;8.50;99.90;;;;;;5058820;28;20119;-84
2022/11/25 04:44:53;;;;;;;13.55;4.03;;;8.20;99.90;;;;;;5084533;28;20051;-85
2022/11/25 04:47:19;;;;;;;18.15;4.03;;;8.30;99.90;;;;;;5063966;28;20043;-84
2022/11/25 04:49:44;;;;;;;15.20;4.05;;;8.20;99.90;;;;;;5075480;28;20043;-84
2022/11/25 04:52:10;;;;;;;17.58;4.30;;;8.30;99.90;;;;;;5057427;28;20198;-83
2022/11/25 04:54:36;;;;;;;14.73;4.13;;;8.40;99.90;;;;;;5070217;28;20044;-84
2022/11/25 04:57:01;;;;;;;19.63;4.55;;;8.30;99.90;;;;;;5059025;28;20071;-83
2022/11/25 04:59:39;;;;;;;16.02;4.47;;;8.40;99.90;;;;;;5058734;28;20044;-84
2022/11/25 05:02:19;;;;;;;16.33;4.13;;;8.30;99.90;;;;;;5073980;28;20064;-83
2022/11/25 05:04:46;;;;;;;17.85;4.85;;;8.40;99.90;;;;;;5089575;28;20040;-84
2022/11/25 05:07:13;;;;;;;15.73;4.30;;;8.40;99.90;;;;;;5072417;28;20041;-84
2022/11/25 05:09:39;;;;;;;20.45;4.72;;;8.40;99.90;;;;;;5056985;28;20521;-83
2022/11/25 05:12:07;;;;;;;13.70;4.00;;;8.40;99.90;;;;;;5093396;28;20087;-84
2022/11/25 05:14:34;;;;;;;13.43;4.13;;;8.40;99.90;;;;;;5058945;28;20127;-81
2022/11/25 05:17:04;;;;;;;16.58;3.83;;;8.40;99.90;;;;;;5059007;28;20124;-80
2022/11/25 05:19:30;;;;;;;18.27;4.22;;;8.40;99.90;;;;;;5073022;28;20510;-80
2022/11/25 05:21:55;;;;;;;17.77;4.40;;;8.50;99.90;;;;;;5090643;28;20032;-80
2022/11/25 05:24:22;;;;;;;15.65;4.85;;;8.40;99.90;;;;;;5056293;28;20109;-80
2022/11/25 05:26:48;;;;;;;13.30;4.03;;;8.40;99.90;;;;;;5074166;28;20139;-80
2022/11/25 05:29:13;;;;;;;17.80;4.38;;;8.40;99.90;;;;;;5057265;28;20403;-80
2022/11/25 05:31:39;;;;;;;19.70;4.18;;;8.50;99.90;;;;;;5056823;28;20115;-80
2022/11/25 05:34:05;;;;;;;14.32;4.30;;;8.50;99.90;;;;;;5089899;28;20050;-80
2022/11/25 05:36:31;;;;;;;15.98;4.30;;;8.50;99.90;;;;;;5054123;28;20048;-80
2022/11/25 05:38:56;;;;;;;18.83;4.50;;;8.50;99.90;;;;;;5087044;28;20069;-81
2022/11/25 05:41:23;;;;;;;17.52;4.32;;;8.60;99.90;;;;;;5090015;28;20044;-80
2022/11/25 05:43:49;;;;;;;15.93;4.78;;;8.50;99.90;;;;;;5067443;28;20036;-81
2022/11/25 05:46:15;;;;;;;12.38;4.55;;;8.50;99.90;;;;;;5088627;28;20043;-81
2022/11/25 05:48:40;;;;;;;16.23;5.10;;;8.50;99.90;;;;;;5090881;28;20044;-81
2022/11/25 05:51:07;;;;;;;16.05;4.13;;;8.80;99.90;;;;;;5057003;28;20122;-81
2022/11/25 05:53:34;;;;;;;18.80;4.60;;;8.60;99.90;;;;;;5087923;28;20088;-81
2022/11/25 05:56:03;;;;;;;15.52;4.53;;;8.50;99.90;;;;;;5055071;28;20028;-81
2022/11/25 05:58:30;;;;;;;18.63;4.10;;;8.60;99.90;;;;;;5073294;28;20115;-81
2022/11/25 06:00:57;;;;;;;15.57;4.15;;;8.50;99.90;;;;;;5073194;28;20968;-81
2022/11/25 06:03:27;;;;;;;23.02;3.97;;;8.60;99.90;;;;;;5073093;28;20051;-81
2022/11/25 06:05:56;;;;;;;12.70;4.00;;;8.60;99.90;;;;;;5071131;28;20123;-81
2022/11/25 06:08:21;;;;;;;18.73;4.50;;;8.50;99.90;;;;;;5070000;28;20641;-81
2022/11/25 06:10:47;;;;;;;13.35;4.22;;;8.50;99.90;;;;;;5088523;28;20047;-81
2022/11/25 06:13:13;;;;;;;15.15;3.90;;;8.50;99.90;;;;;;5070351;28;20046;-82
2022/11/25 06:15:43;;;;;;;15.88;3.75;;;8.40;99.90;;;;;;5068202;28;20510;-82
2022/11/25 06:18:10;;;;;;;17.63;4.07;;;8.50;99.90;;;;;;5066592;28;20031;-81
2022/11/25 06:20:36;;;;;;;16.63;3.55;;;8.40;99.90;;;;;;5068901;28;20089;-80
2022/11/25 06:23:02;;;;;;;16.65;4.22;;;8.40;99.90;;;;;;5088020;28;20631;-80
2022/11/25 06:25:28;;;;;;;18.33;4.00;;;8.40;99.90;;;;;;5070250;28;20071;-80
2022/11/25 06:27:53;;;;;;;15.93;4.93;;;8.40;99.90;;;;;;5088371;28;20080;-80
2022/11/25 06:30:20;;;;;;;15.10;4.35;;;8.50;99.90;;;;;;5089382;28;20086;-80
2022/11/25 06:32:45;;;;;;;22.33;4.75;;;8.30;99.90;;;;;;5067276;28;20174;-80
2022/11/25 06:35:11;;;;;;;19.17;4.30;;;8.30;99.90;;;;;;5064310;28;20048;-80
2022/11/25 06:37:37;;;;;;;16.58;3.90;;;8.30;99.90;;;;;;5087361;28;20039;-81
2022/11/25 06:40:04;;;;;;;13.23;3.40;;;8.30;99.90;;;;;;5088928;28;20047;-82
2022/11/25 06:42:30;;;;;;;14.77;3.80;;;8.20;99.90;;;;;;5087646;28;20042;-82
2022/11/25 06:44:55;;;;;;;17.95;4.20;;;8.70;99.90;;;;;;5070144;28;20040;-81
2022/11/25 06:47:21;;;;;;;14.07;3.55;;;8.10;99.90;;;;;;5063975;28;20163;-81
2022/11/25 06:49:49;;;;;;;17.23;3.40;;;8.10;99.90;;;;;;5086259;28;20146;-82
2022/11/25 06:52:14;;;;;;;14.13;4.00;;;8.80;99.90;;;;;;5070369;28;20174;-83
2022/11/25 06:54:41;;;;;;;14.88;3.97;;;8.00;99.90;;;;;;5089252;28;20197;-82
2022/11/25 06:57:08;;;;;;;14.20;3.47;;;8.00;99.90;;;;;;5067700;28;20549;-81
2022/11/25 06:59:35;;;;;;;11.23;2.88;;;8.00;99.90;;;;;;5068976;28;20039;-81
2022/11/25 07:02:01;;;;;;;15.60;4.85;;;7.90;99.90;;;;;;5054352;28;20091;-83
2022/11/25 07:04:26;;;;;;;11.48;3.15;;;7.90;99.90;;;;;;5068524;28;20568;-81
2022/11/25 07:06:52;;;;;;;12.68;3.45;;;7.90;99.90;;;;;;5085011;28;20047;-81
2022/11/25 07:09:21;;;;;;;16.15;3.90;;;7.80;99.90;;;;;;5053602;28;20051;-81
2022/11/25 07:11:47;;;;;;;13.10;3.40;;;7.80;99.90;;;;;;5055182;28;20786;-81
2022/11/25 07:14:15;;;;;;;12.73;3.10;;;7.80;99.90;;;;;;5071731;28;20040;-81
2022/11/25 07:16:43;;;;;;;11.25;3.55;;;7.80;99.90;;;;;;5055542;28;20113;-82
2022/11/25 07:19:11;;;;;;;13.50;3.72;;;7.90;99.90;;;;;;5086618;28;20040;-81
2022/11/25 07:21:37;;;;;;;16.08;3.47;;;7.80;99.90;;;;;;5087735;28;20055;-83
2022/11/25 07:24:05;;;;;;;12.40;3.10;;;7.70;99.90;;;;;;5072175;28;20591;-84
2022/11/25 07:26:34;;;;;;;10.68;2.90;;;7.70;99.90;;;;;;5073110;28;20036;-83
2022/11/25 07:29:02;;;;;;;9.85;3.17;;;7.70;99.90;;;;;;5073613;28;20047;-84
2022/11/25 07:31:34;;;;;;;9.85;3.50;;;7.70;99.90;;;;;;5090738;28;20040;-83
2022/11/25 07:34:03;;;;;;;9.35;3.30;;;7.70;99.90;;;;;;5090548;28;20051;-80
2022/11/25 07:36:30;;;;;;;10.85;2.92;;;7.70;99.90;;;;;;5089420;28;20115;-82
2022/11/25 07:39:02;;;;;;;8.77;3.47;;;7.70;99.90;;;;;;5071536;28;20097;-81
2022/11/25 07:41:28;;;;;;;13.85;3.45;;;7.80;99.90;;;;;;5066117;28;20108;-81
2022/11/25 07:43:57;;;;;;;8.93;3.10;;;7.70;99.90;;;;;;5089069;28;20554;-81
2022/11/25 07:46:28;;;;;;;12.75;3.70;;;7.70;99.90;;;;;;5088913;28;20059;-81
2022/11/25 07:49:00;;;;;;;12.30;3.85;;;7.70;99.90;;;;;;5077538;28;20052;-81
2022/11/25 07:51:34;;;;;;;11.82;3.22;;;7.70;99.90;;;;;;5076702;28;20056;-80
2022/11/25 07:54:02;;;;;;;11.38;3.15;;;7.70;99.90;;;;;;5094424;28;20068;-81
2022/11/25 07:56:28;;;;;;;11.68;3.42;;;7.70;99.90;;;;;;5094802;28;20044;-81
2022/11/25 07:58:55;;;;;;;14.10;3.40;;;7.70;99.90;;;;;;5074401;28;20097;-82
2022/11/25 08:01:21;;;;;;;8.05;3.53;;;7.70;99.90;;;;;;5093451;28;20029;-82
2022/11/25 08:03:48;;;;;;;11.57;3.78;;;7.70;99.90;;;;;;5091647;28;20039;-80
2022/11/25 08:06:23;;;;;;;9.20;3.42;;;7.80;99.90;;;;;;5091992;28;20047;-80
2022/11/25 08:08:51;;;;;;;8.95;3.38;;;7.80;99.90;;;;;;5092712;28;20039;-78
2022/11/25 08:11:23;;;;;;;10.25;3.60;;;7.80;99.90;;;;;;5073101;28;20032;-80
2022/11/25 08:13:49;;;;;;;11.38;3.90;;;7.90;99.90;;;;;;5071591;28;20062;-81
2022/11/25 08:16:17;;;;;;;7.70;3.97;;;7.80;99.90;;;;;;5073538;28;20085;-81
2022/11/25 08:18:43;;;;;;;9.93;3.90;;;7.90;99.90;;;;;;5093158;28;20070;-81
2022/11/25 08:21:11;;;;;;;8.27;3.70;;;8.00;99.90;;;;;;5070218;28;20044;-80
2022/11/25 08:23:38;;;;;;;11.57;3.92;;;8.00;99.90;;;;;;5072052;28;20056;-79
2022/11/25 08:26:10;;;;;;;8.73;3.35;;;8.00;99.90;;;;;;5090691;28;20134;-81
2022/11/25 08:28:37;;;;;;;8.20;3.40;;;8.00;99.90;;;;;;5092326;28;20044;-80
2022/11/25 08:31:04;;;;;;;9.18;4.40;;;8.10;99.90;;;;;;5089503;28;20983;-80
2022/11/25 08:33:31;;;;;;;10.35;3.78;;;8.10;99.90;;;;;;5091725;28;20079;-79
2022/11/25 08:35:56;;;;;;;9.95;3.38;;;8.10;99.90;;;;;;5074272;28;20079;-79
2022/11/25 08:38:22;;;;;;;11.63;4.28;;;8.10;99.90;;;;;;5056358;28;20071;-80
2022/11/25 08:40:48;;;;;;;12.32;4.30;;;8.10;99.90;;;;;;5057864;28;20047;-81
2022/11/25 08:43:13;;;;;;;8.77;3.90;;;8.10;99.90;;;;;;5070437;28;20046;-80
2022/11/25 08:45:40;;;;;;;8.18;3.90;;;8.10;99.90;;;;;;5074460;28;20067;-80
2022/11/25 08:48:06;;;;;;;8.07;4.18;;;8.20;99.90;;;;;;5091272;28;20049;-80
2022/11/25 08:50:31;;;;;;;9.52;4.80;;;8.20;99.90;;;;;;5058389;28;20047;-82
2022/11/25 08:52:58;;;;;;;9.20;4.57;;;8.20;99.90;;;;;;5092994;28;20117;-82
2022/11/25 08:55:26;;;;;;;10.82;4.22;;;8.30;99.90;;;;;;5063203;28;20106;-81
2022/11/25 08:57:55;;;;;;;8.95;4.47;;;8.30;99.90;;;;;;5075412;28;20051;-80
2022/11/25 09:00:21;;;;;;;13.07;5.00;;;8.30;99.90;;;;;;5073269;28;20032;-78
2022/11/25 09:02:47;;;;;;;11.55;4.82;;;8.40;99.90;;;;;;5091190;28;20059;-78
2022/11/25 09:05:15;;;;;;;10.40;4.15;;;8.50;99.90;;;;;;5057179;28;20075;-79
2022/11/25 09:07:42;;;;;;;9.93;5.00;;;8.60;99.90;;;;;;5090141;28;20078;-79
2022/11/25 09:10:13;;;;;;;9.77;4.25;;;8.80;99.90;;;;;;5074740;28;20071;-78
2022/11/25 09:12:39;;;;;;;8.90;4.35;;;9.00;99.90;;;;;;5091374;28;20368;-77
2022/11/25 09:15:05;;;;;;;8.35;3.85;;;9.20;99.90;;;;;;5065327;28;20109;-77
2022/11/25 09:17:33;;;;;;;10.35;4.97;;;9.30;99.90;;;;;;5056881;28;20074;-77
2022/11/25 09:19:58;;;;;;;9.73;4.43;;;9.40;99.90;;;;;;5053653;28;20032;-78
2022/11/25 09:22:24;;;;;;;7.22;4.10;;;9.40;99.90;;;;;;5089756;28;20040;-77
2022/11/25 09:24:50;;;;;;;17.25;4.60;;;9.30;99.90;;;;;;5057338;28;20122;-80
2022/11/25 09:27:15;;;;;;;11.43;4.80;;;9.90;99.90;;;;;;5075255;28;20040;-79
2022/11/25 09:29:41;;;;;;;10.63;5.05;;;9.30;99.90;;;;;;5056482;28;20079;-80
2022/11/25 09:32:07;;;;;;;8.68;4.97;;;9.40;99.90;;;;;;5070267;28;21057;-80
2022/11/25 09:34:33;;;;;;;11.57;4.38;;;9.50;99.90;;;;;;5088455;28;20052;-80
2022/11/25 09:36:58;;;;;;;12.05;4.40;;;9.50;99.90;;;;;;5073857;28;20060;-81
2022/11/25 09:39:28;;;;;;;9.00;4.20;;;9.70;99.90;;;;;;5057995;28;20085;-81
2022/11/25 09:48:28;;;;;;;9.27;3.58;;;10.20;99.90;;;;;;5056891;28;20484;-81
2022/11/25 09:51:04;;;;;;;8.52;3.45;;;10.40;99.90;;;;;;5092411;28;20045;-81
2022/11/25 09:53:43;;;;;;;9.07;3.40;;;10.60;99.90;;;;;;5090736;28;20144;-81
2022/11/25 09:56:34;;;;;;;9.95;2.90;;;11.00;99.90;;;;;;5090401;28;21003;-81
2022/11/25 09:59:16;;;;;;;7.82;2.92;;;11.50;99.90;;;;;;5072924;28;20036;-82
2022/11/25 10:02:03;;;;;;;11.07;3.08;;;12.20;99.90;;;;;;5091190;28;20040;-82
2022/11/25 10:04:40;;;;;;;7.93;3.25;;;12.70;99.90;;;;;;5073585;28;20036;-79
2022/11/25 10:07:44;;;;;;;8.63;2.63;;;12.90;99.90;;;;;;5074105;28;20040;-81
2022/11/25 10:10:25;;;;;;;9.40;2.55;;;13.30;99.90;;;;;;5041737;28;20048;-82
2022/11/25 10:12:53;;;;;;;11.18;2.92;;;13.40;99.90;;;;;;5092784;28;20118;-81
2022/11/25 10:15:28;;;;;;;7.18;2.45;;;13.40;99.90;;;;;;5090920;28;20141;-81
2022/11/25 10:18:03;;;;;;;9.15;2.63;;;13.50;99.90;;;;;;5075747;28;20039;-81
2022/11/25 10:20:34;;;;;;;6.07;2.13;;;13.50;99.90;;;;;;5090615;28;20036;-82
2022/11/25 10:23:14;;;;;;;7.30;2.60;;;13.40;99.90;;;;;;5073999;28;20035;-82
2022/11/25 10:25:44;;;;;;;6.85;2.70;;;13.10;99.90;;;;;;5092763;28;20054;-82
2022/11/25 10:28:17;;;;;;;9.35;2.95;;;12.70;99.90;;;;;;5076070;28;20052;-81
2022/11/25 10:30:49;;;;;;;8.45;2.90;;;12.40;99.90;;;;;;5076062;28;20051;-81
2022/11/25 10:33:23;;;;;;;9.52;3.22;;;12.00;99.90;;;;;;5067392;28;20149;-81
2022/11/25 10:35:57;;;;;;;7.50;2.88;;;11.80;99.90;;;;;;5073213;28;20127;-81
2022/11/25 10:38:41;;;;;;;8.95;3.13;;;11.60;99.90;;;;;;5073325;28;20047;-80
2022/11/25 10:41:09;;;;;;;6.13;3.13;;;11.60;99.90;;;;;;5092722;28;20067;-81
2022/11/25 10:43:36;;;;;;;6.25;3.00;;;11.70;99.90;;;;;;5068391;28;20044;-81
2022/11/25 10:46:29;;;;;;;7.63;3.20;;;11.30;99.90;;;;;;5073062;28;20047;-81
2022/11/25 10:49:17;;;;;;;8.73;2.83;;;11.20;99.90;;;;;;5092148;28;20477;-81
2022/11/25 10:51:48;;;;;;;8.00;2.80;;;11.10;99.90;;;;;;5073866;28;20032;-81
2022/11/25 10:54:26;;;;;;;7.78;2.90;;;11.30;99.90;;;;;;5072300;28;20070;-81
2022/11/25 10:56:55;;;;;;;8.60;3.03;;;11.50;99.90;;;;;;5091741;28;20066;-81
2022/11/25 10:59:30;;;;;;;8.45;3.25;;;11.50;99.90;;;;;;5090416;28;20032;-81
2022/11/25 11:02:19;;;;;;;8.23;2.95;;;11.60;99.90;;;;;;5074416;28;20053;-81
2022/11/25 11:05:19;;;;;;;13.13;3.17;;;12.20;99.90;;;;;;5074426;28;20070;-80
2022/11/25 11:07:45;;;;;;;9.27;2.90;;;13.00;99.90;;;;;;5090646;28;20044;-81
2022/11/25 11:10:38;;;;;;;8.38;2.97;;;13.70;99.90;;;;;;5092231;28;20040;-81
2022/11/25 11:13:24;;;;;;;8.18;2.88;;;13.90;99.90;;;;;;5087033;28;20055;-82
2022/11/25 11:15:51;;;;;;;10.05;2.58;;;13.90;99.90;;;;;;5082977;28;20033;-83
2022/11/25 11:18:20;;;;;;;6.43;2.40;;;13.90;99.90;;;;;;5067993;28;20040;-82
2022/11/25 11:20:51;;;;;;;7.18;2.60;;;14.00;99.90;;;;;;5074817;28;20470;-81
2022/11/25 11:23:18;;;;;;;11.05;2.80;;;13.80;99.90;;;;;;5076862;28;20024;-82
2022/11/25 11:26:08;;;;;;;8.95;3.00;;;14.00;99.90;;;;;;5061104;28;20050;-81
2022/11/25 11:28:35;;;;;;;8.05;2.63;;;14.40;99.90;;;;;;5074323;28;20047;-80
2022/11/25 11:31:17;;;;;;;9.10;2.70;;;14.70;99.90;;;;;;5079020;28;20051;-81
2022/11/25 11:33:47;;;;;;;9.75;2.88;;;14.90;99.90;;;;;;5094615;28;20087;-82
2022/11/25 11:36:31;;;;;;;8.10;2.60;;;14.90;99.90;;;;;;5095737;28;20039;-83
2022/11/25 11:39:27;;;;;;;8.27;2.83;;;15.00;99.90;;;;;;5080365;28;20476;-83
2022/11/25 11:42:12;;;;;;;9.25;2.63;;;14.70;99.90;;;;;;5077410;28;20047;-84
2022/11/25 11:45:02;;;;;;;12.25;2.95;;;14.20;99.90;;;;;;5093603;28;20113;-81
2022/11/25 11:47:52;;;;;;;10.45;2.50;;;13.80;99.90;;;;;;5094335;28;20040;-82
2022/11/25 11:50:39;;;;;;;9.38;3.15;;;13.20;99.90;;;;;;5095169;28;20093;-83
2022/11/25 11:53:13;;;;;;;13.95;3.10;;;12.90;99.90;;;;;;5057155;28;20045;-82
2022/11/25 11:55:47;;;;;;;14.60;3.28;;;12.50;99.90;;;;;;5057633;28;20084;-83
2022/11/25 11:58:21;;;;;;;12.48;3.05;;;12.30;99.90;;;;;;5073662;28;20037;-82
2022/11/25 12:01:02;;;;;;;12.27;3.00;;;12.20;99.90;;;;;;5057010;28;20096;-85
2022/11/25 12:03:31;;;;;;;8.85;2.80;;;12.10;99.90;;;;;;5073228;28;20095;-83
2022/11/25 12:06:03;;;;;;;9.63;2.75;;;12.20;99.90;;;;;;5042206;28;20036;-81
2022/11/25 12:08:49;;;;;;;16.17;3.95;;;12.40;99.90;;;;;;5073445;28;20052;-82
2022/11/25 12:11:24;;;;;;;10.30;2.58;;;12.50;99.90;;;;;;5055228;28;20045;-82
2022/11/25 12:14:06;;;;;;;15.05;3.35;;;12.40;99.90;;;;;;5073263;28;20147;-82
2022/11/25 12:16:51;;;;;;;9.93;2.92;;;12.30;99.90;;;;;;5074859;28;20095;-86
2022/11/25 12:19:34;;;;;;;8.82;2.80;;;12.10;99.90;;;;;;5092707;28;20040;-85
2022/11/25 12:22:02;;;;;;;14.43;3.00;;;11.90;99.90;;;;;;5074857;28;20044;-83
2022/11/25 12:25:00;;;;;;;9.70;2.67;;;11.80;99.90;;;;;;5073016;28;20550;-82
2022/11/25 12:27:32;;;;;;;15.88;3.20;;;11.80;99.90;;;;;;5075680;28;20455;-83
2022/11/25 12:30:03;;;;;;;15.10;3.25;;;11.80;99.90;;;;;;5058559;28;20127;-82
2022/11/25 12:32:44;;;;;;;11.30;3.33;;;11.80;99.90;;;;;;5056690;28;20044;-82
2022/11/25 12:35:09;;;;;;;11.95;3.13;;;11.90;99.90;;;;;;5055252;28;20078;-82
2022/11/25 12:38:03;;;;;;;8.20;2.60;;;11.90;99.90;;;;;;5056648;28;20041;-82
2022/11/25 12:40:36;;;;;;;11.77;3.17;;;11.90;99.90;;;;;;5073323;28;20040;-82
2022/11/25 12:43:14;;;;;;;12.13;3.47;;;11.80;99.90;;;;;;5073479;28;20048;-82
2022/11/25 12:45:42;;;;;;;12.40;2.83;;;11.80;99.90;;;;;;5057782;28;20052;-82
2022/11/25 12:48:10;;;;;;;12.32;3.47;;;11.80;99.90;;;;;;5057364;28;20093;-82
2022/11/25 12:50:42;;;;;;;10.93;2.90;;;11.80;99.90;;;;;;5056599;28;20044;-83
2022/11/25 12:53:36;;;;;;;8.20;2.40;;;11.80;99.90;;;;;;5052719;28;20173;-82
2022/11/25 12:56:05;;;;;;;14.48;2.90;;;11.90;99.90;;;;;;5094110;28;20056;-82
2022/11/25 12:58:48;;;;;;;13.77;2.95;;;11.90;99.90;;;;;;5093459;28;20037;-82
2022/11/25 13:01:28;;;;;;;14.02;2.85;;;11.90;99.90;;;;;;5057968;28;20488;-84
2022/11/25 13:04:15;;;;;;;13.68;3.00;;;12.10;99.90;;;;;;5073372;28;20396;-81
2022/11/25 13:07:09;;;;;;;9.63;2.42;;;12.30;99.90;;;;;;5073438;28;20040;-82
2022/11/25 13:09:52;;;;;;;10.35;2.90;;;12.40;99.90;;;;;;5058876;28;20037;-83
2022/11/25 13:12:26;;;;;;;9.65;2.65;;;12.40;99.90;;;;;;5054408;28;20040;-82
2022/11/25 13:15:13;;;;;;;15.32;2.83;;;12.40;99.90;;;;;;5070942;28;20546;-83
2022/11/25 13:17:42;;;;;;;15.18;2.88;;;12.40;99.90;;;;;;5074667;28;20036;-83